Time;durP1;ratioP1;P1;durP2;ratioP2;P2;SDS_P1;SDS_P2;PMS_P1;PMS_P2;Temp;Humidity;BMP_temperature;BMP_pressure;BME280_temperature;BME280_humidity;BME280_pressure;Samples;Min_cycle;Max_cycle;Signal;HPM_P1;HPM_P2
2023/01/04 00:00:48;;;;;;;;;;;12.50;99.90;;;;;;5103168;28;19912;-65
2023/01/04 00:03:13;;;;;;;;;;;12.50;99.90;;;;;;5099204;28;20319;-67
2023/01/04 00:05:39;;;;;;;;;;;12.40;99.90;;;;;;5087369;28;19916;-67
2023/01/04 00:08:04;;;;;;;;;;;12.50;99.90;;;;;;5091215;28;20049;-67
2023/01/04 00:10:30;;;;;;;;;;;12.50;99.90;;;;;;5091450;28;20377;-67
2023/01/04 00:12:56;;;;;;;;;;;12.40;99.90;;;;;;5103382;28;20021;-67
2023/01/04 00:15:21;;;;;;;;;;;12.40;99.90;;;;;;5081617;28;20366;-65
2023/01/04 00:17:47;;;;;;;;;;;12.40;99.90;;;;;;5072447;28;20437;-66
2023/01/04 00:20:13;;;;;;;;;;;12.40;99.90;;;;;;5092627;28;19916;-66
2023/01/04 00:22:38;;;;;;;;;;;12.40;99.90;;;;;;5109945;28;19969;-67
2023/01/04 00:25:04;;;;;;;;;;;12.40;99.90;;;;;;5081556;28;19956;-65
2023/01/04 00:27:29;;;;;;;;;;;12.40;99.90;;;;;;5093865;28;19985;-66
2023/01/04 00:29:55;;;;;;;;;;;12.40;99.90;;;;;;5093413;28;19915;-68
2023/01/04 00:32:21;;;;;;;;;;;12.50;99.90;;;;;;5079852;28;19934;-66
2023/01/04 00:34:46;;;;;;;;;;;12.50;99.90;;;;;;5071669;28;19963;-66
2023/01/04 00:37:12;;;;;;;;;;;12.50;99.90;;;;;;5087571;28;19911;-64
2023/01/04 00:39:37;;;;;;;;;;;12.50;99.90;;;;;;5091408;28;19915;-66
2023/01/04 00:42:06;;;;;;;;;;;12.40;99.90;;;;;;5091388;28;19919;-66
2023/01/04 00:44:32;;;;;;;;;;;12.40;99.90;;;;;;5104036;28;19916;-71
2023/01/04 00:46:59;;;;;;;;;;;12.50;99.90;;;;;;5093314;28;19912;-65
2023/01/04 00:49:24;;;;;;;;;;;12.40;99.90;;;;;;5080273;28;19955;-66
2023/01/04 00:51:50;;;;;;;;;;;12.40;99.90;;;;;;5072926;28;19908;-66
2023/01/04 00:54:16;;;;;;;;;;;12.40;99.90;;;;;;5072893;28;20015;-67
2023/01/04 00:56:42;;;;;;;;;;;12.30;99.90;;;;;;5074328;28;19996;-66
2023/01/04 00:59:09;;;;;;;;;;;12.30;99.90;;;;;;5094117;28;19919;-66
2023/01/04 01:01:34;;;;;;;;;;;12.30;99.90;;;;;;5086991;28;19982;-64
2023/01/04 01:04:01;;;;;;;;;;;12.30;99.90;;;;;;5094280;28;19908;-66
2023/01/04 01:06:27;;;;;;;;;;;12.20;99.90;;;;;;5086511;28;19920;-66
2023/01/04 01:08:53;;;;;;;;;;;12.10;99.90;;;;;;5091893;28;19995;-66
2023/01/04 01:11:19;;;;;;;;;;;12.10;99.90;;;;;;5091447;28;20017;-66
2023/01/04 01:13:45;;;;;;;;;;;12.10;99.90;;;;;;5090742;28;19916;-64
2023/01/04 01:16:12;;;;;;;;;;;12.10;99.90;;;;;;5071109;28;20003;-65
2023/01/04 01:18:39;;;;;;;;;;;12.20;99.90;;;;;;5097575;28;20356;-65
2023/01/04 01:21:05;;;;;;;;;;;12.10;99.90;;;;;;5091521;28;19916;-65
2023/01/04 01:23:31;;;;;;;;;;;12.00;99.90;;;;;;5077270;28;19908;-65
2023/01/04 01:26:02;;;;;;;;;;;12.00;99.90;;;;;;5071023;28;19915;-65
2023/01/04 01:28:28;;;;;;;;;;;12.10;99.90;;;;;;5072224;28;19909;-66
2023/01/04 01:30:53;;;;;;;;;;;12.10;99.90;;;;;;5073247;28;20374;-66
2023/01/04 01:33:19;;;;;;;;;;;12.20;99.90;;;;;;5096053;28;19922;-65
2023/01/04 01:35:44;;;;;;;;;;;12.20;99.90;;;;;;5090437;28;19908;-66
2023/01/04 01:38:10;;;;;;;;;;;12.30;99.90;;;;;;5107692;28;19916;-65
2023/01/04 01:40:42;;;;;;;;;;;12.20;99.90;;;;;;5081445;28;19909;-64
2023/01/04 01:43:21;;;;;;;;;;;12.20;99.90;;;;;;5070595;28;19939;-65
2023/01/04 01:45:48;;;;;;;;;;;12.20;99.90;;;;;;5075880;28;19920;-65
2023/01/04 01:48:16;;;;;;;;;;;12.20;99.90;;;;;;5099857;28;19909;-67
2023/01/04 01:51:00;;;;;;;;;;;12.20;99.90;;;;;;5070490;28;19913;-66
2023/01/04 01:53:27;;;;;;;;;;;12.20;99.90;;;;;;5070306;28;20427;-66
2023/01/04 01:55:53;;;;;;;;;;;12.10;99.90;;;;;;5070569;28;19908;-65
2023/01/04 01:58:22;;;;;;;;;;;12.10;99.90;;;;;;5069536;28;20296;-66
2023/01/04 02:00:47;;;;;;;;;;;12.20;99.90;;;;;;5071533;28;19912;-66
2023/01/04 02:03:34;;;;;;;;;;;12.10;99.90;;;;;;5081981;28;20035;-66
2023/01/04 02:06:01;;;;;;;;;;;12.10;99.90;;;;;;5090469;28;19916;-64
2023/01/04 02:08:27;;;;;;;;;;;12.10;99.90;;;;;;5072773;28;20323;-65
2023/01/04 02:10:52;;;;;;;;;;;12.10;99.90;;;;;;5071737;28;19920;-67
2023/01/04 02:13:20;;;;;;;;;;;12.10;99.90;;;;;;5072498;28;19921;-67
2023/01/04 02:15:52;;;;;;;;;;;12.10;99.90;;;;;;5060874;28;19912;-67
2023/01/04 02:18:23;;;;;;;;;;;12.20;99.90;;;;;;5072894;28;19920;-65
2023/01/04 02:20:58;;;;;;;;;;;12.10;99.90;;;;;;5077817;28;19912;-66
2023/01/04 02:23:46;;;;;;;;;;;12.00;99.90;;;;;;5072857;28;19981;-66
2023/01/04 02:26:34;;;;;;;;;;;11.90;99.90;;;;;;5062859;28;19924;-66
2023/01/04 02:29:18;;;;;;;;;;;11.90;99.90;;;;;;5098641;28;19965;-66
2023/01/04 02:31:44;;;;;;;;;;;11.80;99.90;;;;;;5088022;28;20412;-67
2023/01/04 02:34:28;;;;;;;;;;;11.80;99.90;;;;;;5092758;28;20003;-64
2023/01/04 02:36:56;;;;;;;;;;;11.70;99.90;;;;;;5095078;28;19950;-67
2023/01/04 02:39:22;;;;;;;;;;;11.70;99.90;;;;;;5087572;28;19912;-67
2023/01/04 02:41:59;;;;;;;;;;;11.70;99.90;;;;;;5090276;28;20286;-67
2023/01/04 02:44:53;;;;;;;;;;;11.70;99.90;;;;;;5089893;28;20035;-63
2023/01/04 02:50:29;;;;;;;;;;;11.70;99.90;;;;;;5086580;28;19908;-66
2023/01/04 02:50:31;;;;;;;;;;;11.70;99.90;;;;;;5069928;28;19909;-65
2023/01/04 02:53:01;;;;;;;;;;;11.70;99.90;;;;;;5085528;28;20065;-66
2023/01/04 02:55:31;;;;;;;;;;;11.60;99.90;;;;;;5089635;28;19982;-66
2023/01/04 02:58:00;;;;;;;;;;;11.60;99.90;;;;;;5070570;28;19939;-66
2023/01/04 03:00:31;;;;;;;;;;;11.70;99.90;;;;;;5102165;28;20030;-66
2023/01/04 03:08:36;;;;;;;;;;;11.70;99.90;;;;;;5110732;28;19915;-66
2023/01/04 03:11:02;;;;;;;;;;;11.60;99.90;;;;;;5099905;28;19912;-65
2023/01/04 03:13:30;;;;;;;;;;;11.60;99.90;;;;;;5113388;28;19927;-67
2023/01/04 03:16:07;;;;;;;;;;;11.50;99.90;;;;;;5109034;28;19943;-66
2023/01/04 03:18:35;;;;;;;;;;;11.50;99.90;;;;;;5098418;28;19919;-66
2023/01/04 03:21:02;;;;;;;;;;;11.50;99.90;;;;;;5093008;28;19919;-66
2023/01/04 03:37:28;;;;;;;;;;;11.50;99.90;;;;;;5113339;28;19926;-65
2023/01/04 03:49:28;;;;;;;;;;;11.50;99.90;;;;;;5098726;28;20476;-64
2023/01/04 03:51:56;;;;;;;;;;;11.60;99.90;;;;;;5102368;28;20339;-66
2023/01/04 03:54:23;;;;;;;;;;;11.60;99.90;;;;;;5108206;28;19916;-67
2023/01/04 03:56:50;;;;;;;;;;;11.70;99.90;;;;;;5093069;28;19943;-66
2023/01/04 03:59:15;;;;;;;;;;;11.60;99.90;;;;;;5075005;28;20587;-66
2023/01/04 04:01:42;;;;;;;;;;;11.60;99.90;;;;;;5078681;28;19942;-66
2023/01/04 04:09:36;;;;;;;;;;;11.60;99.90;;;;;;5076107;28;20317;-64
2023/01/04 04:12:01;;;;;;;;;;;11.60;99.90;;;;;;5076716;28;19912;-66
2023/01/04 04:14:27;;;;;;;;;;;11.60;99.90;;;;;;5074739;28;19923;-65
2023/01/04 04:16:53;;;;;;;;;;;11.60;99.90;;;;;;5074559;28;19950;-67
2023/01/04 04:19:18;;;;;;;;;;;11.60;99.90;;;;;;5072135;28;19913;-64
2023/01/04 04:21:44;;;;;;;;;;;11.60;99.90;;;;;;5073041;28;19922;-66
2023/01/04 04:24:15;;;;;;;;;;;11.60;99.90;;;;;;5077588;28;19917;-64
2023/01/04 04:26:41;;;;;;;;;;;11.60;99.90;;;;;;5106355;28;19908;-71
2023/01/04 04:29:07;;;;;;;;;;;11.60;99.90;;;;;;5082711;28;20396;-65
2023/01/04 04:31:32;;;;;;;;;;;11.60;99.90;;;;;;5077333;28;19920;-65
2023/01/04 04:33:58;;;;;;;;;;;11.70;99.90;;;;;;5077343;28;19978;-64
2023/01/04 04:36:24;;;;;;;;;;;11.70;99.90;;;;;;5075467;28;19973;-69
2023/01/04 04:38:49;;;;;;;;;;;11.70;99.90;;;;;;5083100;28;19912;-69
2023/01/04 04:43:59;;;;;;;;;;;11.60;99.90;;;;;;5082961;28;19966;-65
2023/01/04 04:46:25;;;;;;;;;;;11.60;99.90;;;;;;5084468;28;20333;-64
2023/01/04 04:48:50;;;;;;;;;;;11.60;99.90;;;;;;5071762;28;20002;-65
2023/01/04 04:51:16;;;;;;;;;;;11.60;99.90;;;;;;5075305;28;19916;-66
2023/01/04 04:53:41;;;;;;;;;;;11.60;99.90;;;;;;5076978;28;19983;-69
2023/01/04 04:56:10;;;;;;;;;;;11.60;99.90;;;;;;5077147;28;20024;-67
2023/01/04 04:58:36;;;;;;;;;;;11.60;99.90;;;;;;5075572;28;19912;-67
2023/01/04 05:01:02;;;;;;;;;;;11.60;99.90;;;;;;5075729;28;19931;-66
2023/01/04 05:03:29;;;;;;;;;;;11.60;99.90;;;;;;5073785;28;19918;-65
2023/01/04 05:05:55;;;;;;;;;;;11.50;99.90;;;;;;5079929;28;19930;-65
2023/01/04 05:08:20;;;;;;;;;;;11.50;99.90;;;;;;5112237;28;19912;-65
2023/01/04 05:10:46;;;;;;;;;;;11.50;99.90;;;;;;5099235;28;19938;-64
2023/01/04 05:13:12;;;;;;;;;;;11.40;99.90;;;;;;5086469;28;20338;-65
2023/01/04 05:15:38;;;;;;;;;;;11.40;99.90;;;;;;5090683;28;20011;-66
2023/01/04 05:18:04;;;;;;;;;;;11.30;99.90;;;;;;5110556;28;19908;-66
2023/01/04 05:20:30;;;;;;;;;;;11.30;99.90;;;;;;5100084;28;19908;-66
2023/01/04 05:22:55;;;;;;;;;;;11.30;99.90;;;;;;5071172;28;20564;-65
2023/01/04 05:25:21;;;;;;;;;;;11.30;99.90;;;;;;5101537;28;19953;-67
2023/01/04 05:27:47;;;;;;;;;;;11.30;99.90;;;;;;5110865;28;19919;-65
2023/01/04 05:32:58;;;;;;;;;;;11.20;99.90;;;;;;5078308;28;19939;-65
2023/01/04 05:35:23;;;;;;;;;;;11.20;99.90;;;;;;5075722;28;20326;-66
2023/01/04 05:37:49;;;;;;;;;;;11.20;99.90;;;;;;5074439;28;19991;-66
2023/01/04 05:40:15;;;;;;;;;;;11.10;99.90;;;;;;5073183;28;19934;-66
2023/01/04 05:42:40;;;;;;;;;;;11.10;99.90;;;;;;5075248;28;19916;-65
2023/01/04 05:45:06;;;;;;;;;;;11.00;99.90;;;;;;5073048;28;19912;-66
2023/01/04 05:47:32;;;;;;;;;;;11.00;99.90;;;;;;5073385;28;19947;-67
2023/01/04 05:49:57;;;;;;;;;;;11.00;99.90;;;;;;5096977;28;19916;-66
2023/01/04 05:52:23;;;;;;;;;;;11.00;99.90;;;;;;5104468;28;19992;-65
2023/01/04 05:54:49;;;;;;;;;;;10.90;99.90;;;;;;5098910;28;19915;-65
2023/01/04 05:57:15;;;;;;;;;;;10.90;99.90;;;;;;5106566;28;19912;-65
2023/01/04 05:59:40;;;;;;;;;;;10.80;99.90;;;;;;5105428;28;19918;-64
2023/01/04 06:02:06;;;;;;;;;;;10.80;99.90;;;;;;5102984;28;19912;-64
2023/01/04 06:04:32;;;;;;;;;;;10.80;99.90;;;;;;5098483;28;20373;-65
2023/01/04 06:06:57;;;;;;;;;;;10.90;99.90;;;;;;5097877;28;19939;-65
2023/01/04 06:09:26;;;;;;;;;;;10.80;99.90;;;;;;5091161;28;20020;-63
2023/01/04 06:11:52;;;;;;;;;;;11.00;99.90;;;;;;5080355;28;19923;-67
2023/01/04 06:14:18;;;;;;;;;;;11.00;99.90;;;;;;5106561;28;20002;-66
2023/01/04 06:16:43;;;;;;;;;;;10.90;99.90;;;;;;5092253;28;20313;-67
2023/01/04 06:19:09;;;;;;;;;;;10.90;99.90;;;;;;5098827;28;20333;-65
2023/01/04 06:21:35;;;;;;;;;;;11.00;99.90;;;;;;5071587;28;20004;-66
2023/01/04 06:24:03;;;;;;;;;;;11.00;99.90;;;;;;5094852;28;19919;-66
2023/01/04 06:26:28;;;;;;;;;;;11.10;99.90;;;;;;5076915;28;20337;-66
2023/01/04 06:28:54;;;;;;;;;;;11.30;99.90;;;;;;5097568;28;19911;-66
2023/01/04 06:31:19;;;;;;;;;;;11.30;99.90;;;;;;5086732;28;20375;-66
2023/01/04 06:33:45;;;;;;;;;;;11.30;99.90;;;;;;5110119;28;20026;-67
2023/01/04 06:36:11;;;;;;;;;;;11.20;99.90;;;;;;5080107;28;20442;-66
2023/01/04 06:38:36;;;;;;;;;;;11.20;99.90;;;;;;5089860;28;19911;-66
2023/01/04 06:41:02;;;;;;;;;;;11.20;99.90;;;;;;5099303;28;19931;-66
2023/01/04 06:43:27;;;;;;;;;;;11.20;99.90;;;;;;5094461;28;19959;-66
2023/01/04 06:45:53;;;;;;;;;;;11.20;99.90;;;;;;5086873;28;20451;-65
2023/01/04 06:48:19;;;;;;;;;;;11.10;99.90;;;;;;5074956;28;20003;-64
2023/01/04 06:50:45;;;;;;;;;;;11.10;99.90;;;;;;5074521;28;19987;-65
2023/01/04 06:53:10;;;;;;;;;;;11.20;99.90;;;;;;5074582;28;19990;-66
2023/01/04 06:55:36;;;;;;;;;;;11.30;99.90;;;;;;5087064;28;19915;-64
2023/01/04 06:58:02;;;;;;;;;;;11.30;99.90;;;;;;5075267;28;19912;-66
2023/01/04 07:00:28;;;;;;;;;;;11.40;99.90;;;;;;5110831;28;19951;-66
2023/01/04 07:02:54;;;;;;;;;;;11.40;99.90;;;;;;5081787;28;20007;-67
2023/01/04 07:05:19;;;;;;;;;;;11.40;99.90;;;;;;5107502;28;19974;-67
2023/01/04 07:07:45;;;;;;;;;;;11.30;99.90;;;;;;5103022;28;20406;-65
2023/01/04 07:10:10;;;;;;;;;;;11.40;99.90;;;;;;5113808;28;19966;-68
2023/01/04 07:12:37;;;;;;;;;;;11.50;99.90;;;;;;5104240;28;20266;-67
2023/01/04 07:15:03;;;;;;;;;;;11.50;99.90;;;;;;5081904;28;19916;-66
2023/01/04 07:17:29;;;;;;;;;;;11.60;99.90;;;;;;5078066;28;19927;-66
2023/01/04 07:19:55;;;;;;;;;;;11.60;99.90;;;;;;5078430;28;20294;-67
2023/01/04 07:22:20;;;;;;;;;;;11.70;99.90;;;;;;5079140;28;19912;-65
2023/01/04 07:24:46;;;;;;;;;;;11.80;99.90;;;;;;5075451;28;20366;-67
2023/01/04 07:27:12;;;;;;;;;;;11.80;99.90;;;;;;5060947;28;20408;-66
2023/01/04 07:29:42;;;;;;;;;;;11.80;99.90;;;;;;5077932;28;19962;-68
2023/01/04 07:32:08;;;;;;;;;;;11.90;99.90;;;;;;5080509;28;20074;-66
2023/01/04 07:34:34;;;;;;;;;;;11.90;99.90;;;;;;5080083;28;19955;-67
2023/01/04 07:37:00;;;;;;;;;;;11.90;99.90;;;;;;5076871;28;19912;-68
2023/01/04 07:39:26;;;;;;;;;;;12.00;99.90;;;;;;5080651;28;19988;-65
2023/01/04 07:41:51;;;;;;;;;;;11.90;99.90;;;;;;5096892;28;19939;-66
2023/01/04 07:44:17;;;;;;;;;;;11.90;99.90;;;;;;5103168;28;19912;-66
2023/01/04 07:46:43;;;;;;;;;;;12.00;99.90;;;;;;5081539;28;19912;-65
2023/01/04 07:49:12;;;;;;;;;;;12.00;99.90;;;;;;5085171;28;19916;-65
2023/01/04 07:51:38;;;;;;;;;;;12.20;99.90;;;;;;5105624;28;19919;-65
2023/01/04 07:54:03;;;;;;;;;;;12.20;99.90;;;;;;5107516;28;19916;-64
2023/01/04 07:56:29;;;;;;;;;;;12.30;99.90;;;;;;5097908;28;20002;-65
2023/01/04 07:58:56;;;;;;;;;;;12.30;99.90;;;;;;5090380;28;19922;-66
2023/01/04 08:01:22;;;;;;;;;;;12.30;99.90;;;;;;5082669;28;19919;-66
2023/01/04 08:03:48;;;;;;;;;;;12.30;99.90;;;;;;5096825;28;20281;-67
2023/01/04 08:06:15;;;;;;;;;;;12.20;99.90;;;;;;5089257;28;19923;-65
2023/01/04 08:08:41;;;;;;;;;;;12.20;99.90;;;;;;5097228;28;19919;-67
2023/01/04 08:11:08;;;;;;;;;;;12.20;99.90;;;;;;5087957;28;19920;-67
2023/01/04 08:13:33;;;;;;;;;;;12.20;99.90;;;;;;5099345;28;20333;-59
2023/01/04 08:15:59;;;;;;;;;;;12.20;99.90;;;;;;5106549;28;20002;-62
2023/01/04 08:18:24;;;;;;;;;;;12.20;99.90;;;;;;5112951;28;19950;-64
2023/01/04 08:20:59;;;;;;;;;;;12.30;99.90;;;;;;5108174;28;19911;-62
2023/01/04 08:23:25;;;;;;;;;;;12.20;99.90;;;;;;5112561;28;20022;-62
2023/01/04 08:25:51;;;;;;;;;;;12.20;99.90;;;;;;5106453;28;20523;-63
2023/01/04 08:28:16;;;;;;;;;;;12.30;99.90;;;;;;5107797;28;19915;-63
2023/01/04 08:30:42;;;;;;;;;;;12.40;99.90;;;;;;5101941;28;20341;-62
2023/01/04 08:33:14;;;;;;;;;;;12.50;99.90;;;;;;5107556;28;20412;-63
2023/01/04 08:35:40;;;;;;;;;;;12.50;99.90;;;;;;5103825;28;19911;-63
2023/01/04 08:38:05;;;;;;;;;;;12.40;99.90;;;;;;5106803;28;19935;-63
2023/01/04 08:40:31;;;;;;;;;;;12.40;99.90;;;;;;5099516;28;19970;-62
2023/01/04 08:42:56;;;;;;;;;;;12.50;99.90;;;;;;5112563;28;19908;-64
2023/01/04 08:45:22;;;;;;;;;;;12.60;99.90;;;;;;5107062;28;19911;-64
2023/01/04 08:47:48;;;;;;;;;;;12.60;99.90;;;;;;5104017;28;19922;-63
2023/01/04 08:50:15;;;;;;;;;;;12.60;99.90;;;;;;5097225;28;19915;-62
2023/01/04 08:52:41;;;;;;;;;;;12.60;99.90;;;;;;5109772;28;19918;-59
2023/01/04 08:55:07;;;;;;;;;;;12.70;99.90;;;;;;5111840;28;19912;-62
2023/01/04 08:57:33;;;;;;;;;;;12.60;99.90;;;;;;5093995;28;19918;-61
2023/01/04 08:59:59;;;;;;;;;;;12.60;99.90;;;;;;5098078;28;19912;-61
2023/01/04 09:02:25;;;;;;;;;;;12.60;99.90;;;;;;5110588;28;19918;-63
2023/01/04 09:04:51;;;;;;;;;;;12.70;99.90;;;;;;5110671;28;19990;-62
2023/01/04 09:07:17;;;;;;;;;;;12.80;99.90;;;;;;5107244;28;20358;-63
2023/01/04 09:09:43;;;;;;;;;;;12.80;99.90;;;;;;5106964;28;19916;-64
2023/01/04 09:12:08;;;;;;;;;;;12.80;99.90;;;;;;5101638;28;19912;-63
2023/01/04 09:14:34;;;;;;;;;;;12.80;99.90;;;;;;5115427;28;19973;-67
2023/01/04 09:16:59;;;;;;;;;;;12.70;99.90;;;;;;5102833;28;19912;-64
2023/01/04 09:19:25;;;;;;;;;;;12.70;99.90;;;;;;5095684;28;19923;-63
2023/01/04 09:21:51;;;;;;;;;;;12.70;99.90;;;;;;5088337;28;19912;-61
2023/01/04 09:24:16;;;;;;;;;;;12.70;99.90;;;;;;5105022;28;19949;-62
2023/01/04 09:26:42;;;;;;;;;;;12.70;99.90;;;;;;5102530;28;19922;-64
2023/01/04 09:29:09;;;;;;;;;;;12.70;99.90;;;;;;5103647;28;19912;-62
2023/01/04 09:31:35;;;;;;;;;;;12.70;99.90;;;;;;5099243;28;19911;-62
2023/01/04 09:34:00;;;;;;;;;;;12.70;99.90;;;;;;5103674;28;19965;-62
2023/01/04 09:36:26;;;;;;;;;;;12.70;99.90;;;;;;5098100;28;19912;-62
2023/01/04 09:38:51;;;;;;;;;;;12.70;99.90;;;;;;5108815;28;20014;-63
2023/01/04 09:41:37;;;;;;;;;;;12.70;99.90;;;;;;5098961;28;19942;-62
2023/01/04 09:44:11;;;;;;;;;;;12.70;99.90;;;;;;5079256;28;19916;-64
2023/01/04 09:46:44;;;;;;;;;;;12.80;99.90;;;;;;5103074;28;19912;-63
2023/01/04 09:49:23;;;;;;;;;;;12.80;99.90;;;;;;5089196;28;20377;-65
2023/01/04 09:52:07;;;;;;;;;;;12.80;99.90;;;;;;5106609;28;20292;-67
2023/01/04 09:54:44;;;;;;;;;;;12.80;99.90;;;;;;5111440;28;19912;-67
2023/01/04 09:57:17;;;;;;;;;;;12.80;99.90;;;;;;5106113;28;19912;-65
2023/01/04 09:59:44;;;;;;;;;;;12.90;99.90;;;;;;5095908;28;19912;-61
2023/01/04 10:02:15;;;;;;;;;;;12.90;99.90;;;;;;5098807;28;19912;-61
2023/01/04 10:04:46;;;;;;;;;;;13.00;99.90;;;;;;5095121;28;20362;-64
2023/01/04 10:07:26;;;;;;;;;;;13.00;99.90;;;;;;5089210;28;20412;-63
2023/01/04 10:09:52;;;;;;;;;;;13.00;99.90;;;;;;5097464;28;19931;-61
2023/01/04 10:12:25;;;;;;;;;;;13.00;99.90;;;;;;5108750;28;19916;-62
2023/01/04 10:14:56;;;;;;;;;;;13.00;99.90;;;;;;5108802;28;19945;-63
2023/01/04 10:17:34;;;;;;;;;;;13.00;99.90;;;;;;5099577;28;20342;-62
2023/01/04 10:20:18;;;;;;;;;;;13.10;99.90;;;;;;5091878;28;20294;-63
2023/01/04 10:22:59;;;;;;;;;;;13.00;99.90;;;;;;5105431;28;19912;-63
2023/01/04 10:25:43;;;;;;;;;;;13.10;99.90;;;;;;5110589;28;20241;-62
2023/01/04 10:28:11;;;;;;;;;;;13.20;99.90;;;;;;5080158;28;19920;-61
2023/01/04 10:30:37;;;;;;;;;;;13.10;99.90;;;;;;5099316;28;19916;-63
2023/01/04 10:33:08;;;;;;;;;;;13.10;99.90;;;;;;5105484;28;19989;-64
2023/01/04 10:35:34;;;;;;;;;;;13.00;99.90;;;;;;5101179;28;20282;-61
2023/01/04 10:38:02;;;;;;;;;;;13.00;99.90;;;;;;5097576;28;19919;-61
2023/01/04 10:40:30;;;;;;;;;;;13.10;99.90;;;;;;5091458;28;19935;-64
2023/01/04 10:43:04;;;;;;;;;;;13.10;99.90;;;;;;5103008;28;19912;-64
2023/01/04 10:45:32;;;;;;;;;;;13.10;99.90;;;;;;5109870;28;19915;-66
2023/01/04 10:48:04;;;;;;;;;;;13.20;99.90;;;;;;5100318;28;19968;-64
2023/01/04 10:50:36;;;;;;;;;;;13.30;99.90;;;;;;5105552;28;19915;-65
2023/01/04 10:53:11;;;;;;;;;;;13.30;99.90;;;;;;5101158;28;19977;-65
2023/01/04 10:55:41;;;;;;;;;;;13.40;99.90;;;;;;5110456;28;19908;-64
2023/01/04 10:58:15;;;;;;;;;;;13.40;99.90;;;;;;5098284;28;19938;-62
2023/01/04 11:00:49;;;;;;;;;;;13.40;99.90;;;;;;5106011;28;19916;-64
2023/01/04 11:03:19;;;;;;;;;;;13.40;99.90;;;;;;5104028;28;19919;-63
2023/01/04 11:05:48;;;;;;;;;;;13.30;99.90;;;;;;5100873;28;19924;-65
2023/01/04 11:08:14;;;;;;;;;;;13.30;99.90;;;;;;5101713;28;19912;-62
2023/01/04 11:10:42;;;;;;;;;;;13.40;99.90;;;;;;5107766;28;19912;-65
2023/01/04 11:13:08;;;;;;;;;;;13.40;99.90;;;;;;5097967;28;19911;-65
2023/01/04 11:15:34;;;;;;;;;;;13.40;99.90;;;;;;5109930;28;19915;-65
2023/01/04 11:18:01;;;;;;;;;;;13.40;99.90;;;;;;5098254;28;20002;-63
2023/01/04 11:20:28;;;;;;;;;;;13.40;99.90;;;;;;5095263;28;19959;-61
2023/01/04 11:23:06;;;;;;;;;;;13.40;99.90;;;;;;5100884;28;20424;-66
2023/01/04 11:25:35;;;;;;;;;;;13.30;99.90;;;;;;5090898;28;19938;-61
2023/01/04 11:28:04;;;;;;;;;;;13.40;99.90;;;;;;5097393;28;20341;-63
2023/01/04 11:30:45;;;;;;;;;;;13.60;99.90;;;;;;5102905;28;20393;-64
2023/01/04 11:33:15;;;;;;;;;;;13.60;99.90;;;;;;5102429;28;19915;-65
2023/01/04 11:35:47;;;;;;;;;;;13.60;99.90;;;;;;5098157;28;20393;-67
2023/01/04 11:38:23;;;;;;;;;;;13.70;99.90;;;;;;5104693;28;19912;-63
2023/01/04 11:40:55;;;;;;;;;;;13.60;99.90;;;;;;5106520;28;19911;-67
2023/01/04 11:43:21;;;;;;;;;;;13.60;99.90;;;;;;5104523;28;19911;-66
2023/01/04 11:45:55;;;;;;;;;;;13.60;99.90;;;;;;5087142;28;19911;-66
2023/01/04 11:48:50;;;;;;;;;;;13.80;99.90;;;;;;5106136;28;19913;-66
2023/01/04 11:51:18;;;;;;;;;;;13.70;99.90;;;;;;5096069;28;19907;-64
2023/01/04 11:53:43;;;;;;;;;;;13.80;99.90;;;;;;5107795;28;19916;-67
2023/01/04 11:56:12;;;;;;;;;;;13.80;99.90;;;;;;5108844;28;19935;-65
2023/01/04 11:58:38;;;;;;;;;;;13.90;99.90;;;;;;5103499;28;19919;-65
2023/01/04 12:01:04;;;;;;;;;;;13.90;99.90;;;;;;5107803;28;19918;-65
2023/01/04 12:03:34;;;;;;;;;;;13.90;99.90;;;;;;5105903;28;19920;-63
2023/01/04 12:06:01;;;;;;;;;;;14.00;99.90;;;;;;5094039;28;20326;-66
2023/01/04 12:08:26;;;;;;;;;;;14.10;99.90;;;;;;5089052;28;20337;-64
2023/01/04 12:10:52;;;;;;;;;;;14.20;99.90;;;;;;5105472;28;19923;-63
2023/01/04 12:13:17;;;;;;;;;;;14.30;99.90;;;;;;5103749;28;20293;-65
2023/01/04 12:15:55;;;;;;;;;;;14.40;99.90;;;;;;5105889;28;20393;-65
2023/01/04 12:18:29;;;;;;;;;;;14.20;99.90;;;;;;5097152;28;20011;-60
2023/01/04 12:20:57;;;;;;;;;;;14.20;99.90;;;;;;5097572;28;19912;-64
2023/01/04 12:23:23;;;;;;;;;;;14.30;99.90;;;;;;5101596;28;19934;-61
2023/01/04 12:25:50;;;;;;;;;;;14.30;99.90;;;;;;5096218;28;20390;-63
2023/01/04 12:28:27;;;;;;;;;;;14.20;99.90;;;;;;5093635;28;19919;-61
2023/01/04 12:30:53;;;;;;;;;;;14.10;99.90;;;;;;5096046;28;19930;-63
2023/01/04 12:33:28;;;;;;;;;;;14.20;99.90;;;;;;5091787;28;19920;-64
2023/01/04 12:36:00;;;;;;;;;;;14.20;99.90;;;;;;5080005;28;20011;-65
2023/01/04 12:38:58;;;;;;;;;;;14.20;99.90;;;;;;5103083;28;20038;-66
2023/01/04 12:41:24;;;;;;;;;;;14.20;99.90;;;;;;5035323;28;20058;-65
2023/01/04 12:43:50;;;;;;;;;;;14.10;99.90;;;;;;5084661;28;20369;-65
2023/01/04 12:49:27;;;;;;;;;;;14.10;99.90;;;;;;5088135;28;20457;-66
2023/01/04 12:52:08;;;;;;;;;;;14.20;99.90;;;;;;5081328;28;19963;-65
2023/01/04 12:54:53;;;;;;;;;;;14.00;99.90;;;;;;5105945;28;19977;-64
2023/01/04 12:57:24;;;;;;;;;;;14.00;99.90;;;;;;5097535;28;20348;-64
2023/01/04 12:59:56;;;;;;;;;;;14.00;99.90;;;;;;5108327;28;19984;-67
2023/01/04 13:02:22;;;;;;;;;;;14.00;99.90;;;;;;5081211;28;19931;-64
2023/01/04 13:04:49;;;;;;;;;;;13.90;99.90;;;;;;5093975;28;19912;-63
2023/01/04 13:07:31;;;;;;;;;;;13.80;99.90;;;;;;5078517;28;19916;-64
2023/01/04 13:09:59;;;;;;;;;;;13.70;99.90;;;;;;5075580;28;19964;-62
2023/01/04 13:12:37;;;;;;;;;;;13.70;99.90;;;;;;5073478;28;19916;-62
2023/01/04 13:15:05;;;;;;;;;;;13.60;99.90;;;;;;5074795;28;20029;-64
2023/01/04 13:17:37;;;;;;;;;;;13.60;99.90;;;;;;5077894;28;19916;-65
2023/01/04 13:20:12;;;;;;;;;;;13.60;99.90;;;;;;5078163;28;19939;-62
2023/01/04 13:22:38;;;;;;;;;;;13.50;99.90;;;;;;5109371;28;20456;-61
2023/01/04 13:25:10;;;;;;;;;;;13.40;99.90;;;;;;5073314;28;19923;-64
2023/01/04 13:27:35;;;;;;;;;;;13.30;99.90;;;;;;5079215;28;19927;-65
2023/01/04 13:30:02;;;;;;;;;;;13.40;99.90;;;;;;5073598;28;19924;-62
2023/01/04 13:32:29;;;;;;;;;;;13.40;99.90;;;;;;5095457;28;19919;-65
2023/01/04 13:34:59;;;;;;;;;;;13.50;99.90;;;;;;5085575;28;19915;-68
2023/01/04 13:37:29;;;;;;;;;;;13.50;99.90;;;;;;5088499;28;19922;-65
2023/01/04 13:40:13;;;;;;;;;;;13.50;99.90;;;;;;5093042;28;19947;-65
2023/01/04 13:42:41;;;;;;;;;;;13.30;99.90;;;;;;5098909;28;20365;-65
2023/01/04 13:45:42;;;;;;;;;;;13.20;99.90;;;;;;5079458;28;20011;-63
2023/01/04 13:48:16;;;;;;;;;;;13.20;99.90;;;;;;5021433;28;19917;-65
2023/01/04 13:50:45;;;;;;;;;;;13.30;99.90;;;;;;5089050;28;19999;-66
2023/01/04 13:53:22;;;;;;;;;;;13.20;99.90;;;;;;5093227;28;19960;-64
2023/01/04 13:55:52;;;;;;;;;;;13.30;99.90;;;;;;5098386;28;19912;-65
2023/01/04 13:58:19;;;;;;;;;;;13.20;99.90;;;;;;5094207;28;19912;-65
2023/01/04 14:00:48;;;;;;;;;;;13.20;99.90;;;;;;5100473;28;19923;-61
2023/01/04 14:03:25;;;;;;;;;;;13.10;99.90;;;;;;5097425;28;19923;-63
2023/01/04 14:05:54;;;;;;;;;;;13.10;99.90;;;;;;5104065;28;19915;-65
2023/01/04 14:08:22;;;;;;;;;;;13.10;99.90;;;;;;5099562;28;19919;-66
2023/01/04 14:10:49;;;;;;;;;;;13.10;99.90;;;;;;5101277;28;20052;-64
2023/01/04 14:13:16;;;;;;;;;;;13.10;99.90;;;;;;5099027;28;19947;-65
2023/01/04 14:15:41;;;;;;;;;;;13.00;99.90;;;;;;5098674;28;19967;-67
2023/01/04 14:18:27;;;;;;;;;;;13.10;99.90;;;;;;5101420;28;19911;-62
2023/01/04 14:20:52;;;;;;;;;;;13.00;99.90;;;;;;5087649;28;19960;-63
2023/01/04 14:23:25;;;;;;;;;;;13.20;99.90;;;;;;5096750;28;20358;-64
2023/01/04 14:25:55;;;;;;;;;;;13.10;99.90;;;;;;5104682;28;19919;-64
2023/01/04 14:28:28;;;;;;;;;;;13.10;99.90;;;;;;5103439;28;19987;-65
2023/01/04 14:30:53;;;;;;;;;;;13.10;99.90;;;;;;5094739;28;19915;-65
2023/01/04 14:33:19;;;;;;;;;;;13.00;99.90;;;;;;5090865;28;20465;-65
2023/01/04 14:35:45;;;;;;;;;;;12.90;99.90;;;;;;5097302;28;19908;-63
2023/01/04 14:38:17;;;;;;;;;;;12.90;99.90;;;;;;5085692;28;20393;-66
2023/01/04 14:40:43;;;;;;;;;;;12.90;99.90;;;;;;5082149;28;19924;-64
2023/01/04 14:43:48;;;;;;;;;;;12.90;99.90;;;;;;5096986;28;20362;-62
2023/01/04 14:46:13;;;;;;;;;;;12.80;99.90;;;;;;5047191;28;19967;-65
2023/01/04 14:48:39;;;;;;;;;;;12.80;99.90;;;;;;5038663;28;19908;-67
2023/01/04 14:51:05;;;;;;;;;;;12.90;99.90;;;;;;5071027;28;19918;-64
2023/01/04 14:53:31;;;;;;;;;;;12.90;99.90;;;;;;5103125;28;20005;-65
2023/01/04 14:56:00;;;;;;;;;;;13.00;99.90;;;;;;5102420;28;20004;-66
2023/01/04 14:58:26;;;;;;;;;;;13.00;99.90;;;;;;5106301;28;20301;-63
2023/01/04 15:00:52;;;;;;;;;;;13.00;99.90;;;;;;5106485;28;19912;-66
2023/01/04 15:03:17;;;;;;;;;;;13.10;99.90;;;;;;5071101;28;19917;-66
2023/01/04 15:05:44;;;;;;;;;;;13.10;99.90;;;;;;5079336;28;19916;-65
2023/01/04 15:08:10;;;;;;;;;;;13.10;99.90;;;;;;5081154;28;19912;-63